createdAt,value
2017-07-26T00:01:55.590Z,7.47
2017-07-26T00:04:23.286Z,7.27
2017-07-26T00:06:50.199Z,7.47
2017-07-26T00:09:18.043Z,9.20
2017-07-26T00:11:44.956Z,8.20
2017-07-26T00:14:11.890Z,11.60
2017-07-26T00:16:38.798Z,10.87
2017-07-26T00:19:05.733Z,9.40
2017-07-26T00:21:33.418Z,10.93
2017-07-26T00:24:00.361Z,9.70
2017-07-26T00:26:27.278Z,8.17
2017-07-26T00:28:54.966Z,7.93
2017-07-26T00:31:21.898Z,9.27
2017-07-26T00:33:48.858Z,7.87
2017-07-26T00:36:15.785Z,8.97
2017-07-26T00:38:42.694Z,8.20
2017-07-26T00:41:09.638Z,13.53
2017-07-26T00:43:36.549Z,6.73
2017-07-26T00:46:03.476Z,6.70
2017-07-26T00:48:30.394Z,7.30
2017-07-26T00:50:58.085Z,7.20
2017-07-26T00:53:25.008Z,14.43
2017-07-26T00:55:52.701Z,10.07
2017-07-26T00:58:19.614Z,9.03
2017-07-26T01:00:46.557Z,7.80
2017-07-26T01:03:13.465Z,8.87
2017-07-26T01:05:40.420Z,14.10
2017-07-26T01:08:07.334Z,7.57
2017-07-26T01:10:34.266Z,9.90
2017-07-26T01:13:01.187Z,7.80
2017-07-26T01:15:28.882Z,8.47
2017-07-26T01:17:56.706Z,7.70
2017-07-26T01:20:25.209Z,9.80
2017-07-26T01:22:52.118Z,10.80
2017-07-26T01:25:19.046Z,11.27
2017-07-26T01:27:45.958Z,9.67
2017-07-26T01:30:12.898Z,10.33
2017-07-26T01:32:39.810Z,8.00
2017-07-26T01:35:06.746Z,10.33
2017-07-26T01:37:33.658Z,12.60
2017-07-26T01:40:00.597Z,9.30
2017-07-26T01:42:27.509Z,9.70
2017-07-26T01:44:55.202Z,11.37
2017-07-26T01:47:22.118Z,10.10
2017-07-26T01:49:49.833Z,11.33
2017-07-26T01:52:16.749Z,14.63
2017-07-26T01:54:43.673Z,13.30
2017-07-26T01:57:11.370Z,9.87
2017-07-26T01:59:39.298Z,9.90
2017-07-26T02:02:06.994Z,11.23
2017-07-26T02:04:34.017Z,10.93
2017-07-26T02:07:00.961Z,12.90
2017-07-26T02:09:27.923Z,10.73
2017-07-26T02:11:54.833Z,11.47
2017-07-26T02:14:23.546Z,16.63
2017-07-26T02:16:50.477Z,9.13
2017-07-26T02:19:17.390Z,11.33
2017-07-26T02:21:44.322Z,8.73
2017-07-26T02:24:11.244Z,12.93
2017-07-26T02:26:38.184Z,11.97
2017-07-26T02:29:05.098Z,11.37
2017-07-26T02:31:32.042Z,14.43
2017-07-26T02:33:59.727Z,13.50
2017-07-26T02:36:26.675Z,11.63
2017-07-26T02:38:53.589Z,9.33
2017-07-26T02:41:21.269Z,12.53
2017-07-26T02:43:48.205Z,12.47
2017-07-26T02:46:15.118Z,11.80
2017-07-26T02:48:42.050Z,11.27
2017-07-26T02:51:08.961Z,14.33
2017-07-26T02:53:35.894Z,9.53
2017-07-26T02:56:02.814Z,10.00
2017-07-26T02:58:29.738Z,14.03
2017-07-26T03:00:56.658Z,14.50
2017-07-26T03:03:23.594Z,12.20
2017-07-26T03:05:50.526Z,10.93
2017-07-26T03:08:17.458Z,14.60
2017-07-26T03:10:44.382Z,14.00
2017-07-26T03:13:12.078Z,13.47
2017-07-26T03:15:38.994Z,12.53
2017-07-26T03:18:05.939Z,12.17
2017-07-26T03:20:32.849Z,14.80
2017-07-26T03:22:59.766Z,14.57
2017-07-26T03:25:26.722Z,14.30
2017-07-26T03:27:53.650Z,13.67
2017-07-26T03:30:20.586Z,15.03
2017-07-26T03:32:47.500Z,21.60
2017-07-26T03:35:14.431Z,12.20
2017-07-26T03:37:41.346Z,13.30
2017-07-26T03:40:08.278Z,16.63
2017-07-26T03:42:35.901Z,17.63
2017-07-26T03:45:02.843Z,20.17
2017-07-26T03:47:29.761Z,15.53
2017-07-26T03:49:57.681Z,19.60
2017-07-26T03:52:24.819Z,11.27
2017-07-26T03:54:52.690Z,19.90
2017-07-26T03:57:20.630Z,15.30
2017-07-26T03:59:48.350Z,14.60
2017-07-26T04:02:15.270Z,12.90
2017-07-26T04:04:42.202Z,22.30
2017-07-26T04:07:09.114Z,13.67
2017-07-26T04:09:36.829Z,18.13
2017-07-26T04:12:04.670Z,16.60
2017-07-26T04:14:31.610Z,16.50
2017-07-26T04:16:58.532Z,19.63
2017-07-26T04:19:26.216Z,20.97
2017-07-26T04:21:53.146Z,15.40
2017-07-26T04:24:20.839Z,18.10
2017-07-26T04:26:47.774Z,24.97
2017-07-26T04:29:14.678Z,18.70
2017-07-26T04:31:41.609Z,14.87
2017-07-26T04:34:08.526Z,16.87
2017-07-26T04:36:35.492Z,22.47
2017-07-26T04:39:02.405Z,13.93
2017-07-26T04:41:29.351Z,18.03
2017-07-26T04:43:56.270Z,19.90
2017-07-26T04:46:23.950Z,22.33
2017-07-26T04:48:50.903Z,21.70
2017-07-26T04:51:17.814Z,18.13
2017-07-26T04:53:46.525Z,17.50
2017-07-26T04:56:13.445Z,16.50
2017-07-26T04:58:41.146Z,21.77
2017-07-26T05:01:08.058Z,24.80
2017-07-26T05:03:34.985Z,17.93
2017-07-26T05:06:02.671Z,13.53
2017-07-26T05:08:29.601Z,12.67
2017-07-26T05:10:56.522Z,17.47
2017-07-26T05:13:23.455Z,17.60
2017-07-26T05:15:50.378Z,18.40
2017-07-26T05:18:17.341Z,20.53
2017-07-26T05:20:46.210Z,22.77
2017-07-26T05:23:13.126Z,14.77
2017-07-26T05:25:40.830Z,14.77
2017-07-26T05:28:07.797Z,15.57
2017-07-26T05:30:34.709Z,13.50
2017-07-26T05:33:02.450Z,16.73
2017-07-26T05:35:30.130Z,19.87
2017-07-26T05:37:57.078Z,17.67
2017-07-26T05:40:24.806Z,19.53
2017-07-26T05:42:51.765Z,17.67
2017-07-26T05:45:19.454Z,21.60
2017-07-26T05:47:46.386Z,18.33
2017-07-26T05:50:13.319Z,15.90
2017-07-26T05:52:40.998Z,13.10
2017-07-26T05:55:07.944Z,18.03
2017-07-26T05:57:34.878Z,14.13
2017-07-26T06:00:01.825Z,15.40
2017-07-26T06:02:28.741Z,14.80
2017-07-26T06:04:55.737Z,13.33
2017-07-26T06:07:22.646Z,13.50
2017-07-26T06:09:50.350Z,12.70
2017-07-26T06:12:17.268Z,10.40
2017-07-26T06:14:44.198Z,11.30
2017-07-26T06:17:11.878Z,13.97
2017-07-26T06:19:38.811Z,12.83
2017-07-26T06:22:05.722Z,10.77
2017-07-26T06:24:32.818Z,11.93
2017-07-26T06:26:59.738Z,10.20
2017-07-26T06:29:28.425Z,12.10
2017-07-26T06:31:56.118Z,10.23
2017-07-26T06:34:23.057Z,12.03
2017-07-26T06:36:50.910Z,13.97
2017-07-26T06:39:17.854Z,14.50
2017-07-26T06:41:44.787Z,16.87
2017-07-26T06:44:12.481Z,10.60
2017-07-26T06:46:39.398Z,14.20
2017-07-26T06:49:06.358Z,14.50
2017-07-26T06:51:34.230Z,13.73
2017-07-26T06:54:01.153Z,13.47
2017-07-26T06:56:28.838Z,16.20
2017-07-26T06:58:56.639Z,15.20
2017-07-26T07:01:23.558Z,14.20
2017-07-26T07:03:51.189Z,9.50
2017-07-26T07:06:18.102Z,13.80
2017-07-26T07:08:45.031Z,12.03
2017-07-26T07:11:11.948Z,12.73
2017-07-26T07:13:38.898Z,12.33
2017-07-26T07:16:05.814Z,12.80
2017-07-26T07:18:32.758Z,10.57
2017-07-26T07:20:59.662Z,12.73
2017-07-26T07:23:26.598Z,9.63
2017-07-26T07:25:53.514Z,12.13
2017-07-26T07:28:20.461Z,11.30
2017-07-26T07:30:47.374Z,12.20
2017-07-26T07:33:14.305Z,10.87
2017-07-26T07:35:41.981Z,12.80
2017-07-26T07:38:09.313Z,10.90
2017-07-26T07:40:36.994Z,9.77
2017-07-26T07:43:03.947Z,16.70
2017-07-26T07:45:30.866Z,12.53
2017-07-26T07:47:57.805Z,8.93
2017-07-26T07:50:25.514Z,9.10
2017-07-26T07:52:53.358Z,12.27
2017-07-26T07:55:20.294Z,13.97
2017-07-26T07:57:47.975Z,12.87
2017-07-26T08:00:14.910Z,11.40
2017-07-26T08:02:41.822Z,11.80
2017-07-26T08:05:08.762Z,11.50
2017-07-26T08:07:35.682Z,10.80
2017-07-26T08:10:02.710Z,8.80
2017-07-26T08:12:29.615Z,9.30
2017-07-26T08:14:56.600Z,10.97
2017-07-26T08:17:23.526Z,12.03
2017-07-26T08:19:50.457Z,10.97
2017-07-26T08:22:17.410Z,13.03
2017-07-26T08:24:44.326Z,12.60
2017-07-26T08:27:11.261Z,12.13
2017-07-26T08:29:38.266Z,11.70
2017-07-26T08:32:05.215Z,9.17
2017-07-26T08:34:32.135Z,12.30
2017-07-26T08:36:59.065Z,8.63
2017-07-26T08:39:26.764Z,7.13
2017-07-26T08:41:53.694Z,9.00
2017-07-26T08:44:21.521Z,12.10
2017-07-26T08:46:48.461Z,9.63
2017-07-26T08:49:15.383Z,9.17
2017-07-26T08:51:42.317Z,13.40
2017-07-26T08:54:09.232Z,11.47
2017-07-26T08:56:36.171Z,8.83
2017-07-26T08:59:03.086Z,7.40
2017-07-26T09:01:30.034Z,10.03
2017-07-26T09:03:56.951Z,6.43
2017-07-26T09:06:23.867Z,8.93
2017-07-26T09:08:50.806Z,11.03
2017-07-26T09:11:17.731Z,7.27
2017-07-26T09:13:44.664Z,8.30
2017-07-26T09:16:12.511Z,9.17
2017-07-26T09:18:39.445Z,7.77
2017-07-26T09:21:06.363Z,9.00
2017-07-26T09:23:33.290Z,7.70
2017-07-26T09:26:00.216Z,8.90
2017-07-26T09:28:29.173Z,8.23
2017-07-26T09:30:56.103Z,10.30
2017-07-26T09:33:23.074Z,8.57
2017-07-26T09:35:50.800Z,8.90
2017-07-26T09:38:17.733Z,8.07
2017-07-26T09:40:44.654Z,8.80
2017-07-26T09:43:11.575Z,7.37
2017-07-26T09:45:39.286Z,10.97
2017-07-26T09:48:06.214Z,11.07
2017-07-26T09:50:33.157Z,10.80
2017-07-26T09:53:00.062Z,9.00
2017-07-26T09:55:27.007Z,9.40
2017-07-26T09:57:53.929Z,10.80
2017-07-26T10:00:21.869Z,17.60
2017-07-26T10:02:52.138Z,9.27
2017-07-26T10:05:19.082Z,11.13
2017-07-26T10:07:46.175Z,10.23
2017-07-26T10:10:13.101Z,11.60
2017-07-26T10:12:42.720Z,14.87
2017-07-26T10:15:09.662Z,12.97
2017-07-26T10:17:36.578Z,10.33
2017-07-26T10:20:03.521Z,15.63
2017-07-26T10:22:31.223Z,10.90
2017-07-26T10:24:58.150Z,14.50
2017-07-26T10:27:25.878Z,8.50
2017-07-26T10:29:52.791Z,9.10
2017-07-26T10:32:19.729Z,10.27
2017-07-26T10:34:46.664Z,9.90
2017-07-26T10:37:13.620Z,10.27
2017-07-26T10:39:41.499Z,9.30
2017-07-26T10:42:08.419Z,9.83
2017-07-26T10:44:35.386Z,8.93
2017-07-26T10:47:03.356Z,9.47
2017-07-26T10:49:30.309Z,11.70
2017-07-26T10:51:57.230Z,8.10
2017-07-26T10:54:25.122Z,8.93
2017-07-26T10:56:52.033Z,9.27
2017-07-26T10:59:18.949Z,8.33
2017-07-26T11:01:46.647Z,7.77
2017-07-26T11:04:13.607Z,8.80
2017-07-26T11:06:40.518Z,8.47
2017-07-26T11:09:07.439Z,8.10
2017-07-26T11:11:34.377Z,10.80
2017-07-26T11:14:01.285Z,9.20
2017-07-26T11:16:28.242Z,7.23
2017-07-26T11:18:55.389Z,6.37
2017-07-26T11:21:22.324Z,6.70
2017-07-26T11:23:49.233Z,5.73
2017-07-26T11:26:16.182Z,5.33
2017-07-26T11:28:43.098Z,7.63
2017-07-26T11:31:10.054Z,5.00
2017-07-26T11:33:37.022Z,5.80
2017-07-26T11:36:03.957Z,5.80
2017-07-26T11:38:30.891Z,5.77
2017-07-26T11:40:58.593Z,8.23
2017-07-26T11:43:26.434Z,7.70
2017-07-26T11:45:53.391Z,6.73
2017-07-26T11:48:20.318Z,6.60
2017-07-26T11:50:47.249Z,6.53
2017-07-26T11:53:14.935Z,7.80
2017-07-26T11:55:41.882Z,7.47
2017-07-26T11:58:08.803Z,8.13
2017-07-26T12:00:36.505Z,7.93
2017-07-26T12:03:03.495Z,7.00
2017-07-26T12:05:30.454Z,6.23
2017-07-26T12:07:57.373Z,5.87
2017-07-26T12:10:24.290Z,7.30
2017-07-26T12:12:51.218Z,8.50
2017-07-26T12:15:18.136Z,6.80
2017-07-26T12:17:45.830Z,8.43
2017-07-26T12:20:12.745Z,4.30
2017-07-26T12:22:39.684Z,5.70
2017-07-26T12:25:07.370Z,10.77
2017-07-26T12:27:34.306Z,7.20
2017-07-26T12:30:01.242Z,5.20
2017-07-26T12:32:28.211Z,6.17
2017-07-26T12:34:55.126Z,5.30
2017-07-26T12:37:22.817Z,5.40
2017-07-26T12:39:49.734Z,5.00
2017-07-26T12:42:17.442Z,5.00
2017-07-26T12:44:44.372Z,7.03
2017-07-26T12:47:11.286Z,4.63
2017-07-26T12:49:38.982Z,4.70
2017-07-26T12:52:05.894Z,8.00
2017-07-26T12:54:33.590Z,8.53
2017-07-26T12:57:00.502Z,6.20
2017-07-26T12:59:27.433Z,4.90
2017-07-26T13:01:54.353Z,3.77
2017-07-26T13:04:21.283Z,4.73
2017-07-26T13:06:48.202Z,4.20
2017-07-26T13:09:15.122Z,7.63
2017-07-26T13:11:42.052Z,4.00
2017-07-26T13:14:09.738Z,5.10
2017-07-26T13:16:36.683Z,8.30
2017-07-26T13:19:03.594Z,5.90
2017-07-26T13:21:30.525Z,4.87
2017-07-26T13:23:57.478Z,5.63
2017-07-26T13:26:24.434Z,5.87
2017-07-26T13:28:52.146Z,4.37
2017-07-26T13:31:19.102Z,6.47
2017-07-26T13:33:46.038Z,4.47
2017-07-26T13:36:12.977Z,4.40
2017-07-26T13:38:39.915Z,7.40
2017-07-26T13:41:06.858Z,5.00
2017-07-26T13:43:33.778Z,7.93
2017-07-26T13:46:00.716Z,6.03
2017-07-26T13:48:28.395Z,7.80
2017-07-26T13:50:55.329Z,5.60
2017-07-26T13:53:23.021Z,4.83
2017-07-26T13:55:49.950Z,6.40
2017-07-26T13:58:16.925Z,4.40
2017-07-26T14:00:43.854Z,5.13
2017-07-26T14:03:10.772Z,6.27
2017-07-26T14:05:37.700Z,4.83
2017-07-26T14:08:06.393Z,4.53
2017-07-26T14:10:34.090Z,5.20
2017-07-26T14:13:00.998Z,6.50
2017-07-26T14:15:28.693Z,7.50
2017-07-26T14:17:55.614Z,5.70
2017-07-26T14:20:22.546Z,5.27
2017-07-26T14:22:49.457Z,4.93
2017-07-26T14:25:16.386Z,4.80
2017-07-26T14:27:43.310Z,4.70
2017-07-26T14:30:10.260Z,5.43
2017-07-26T14:32:37.182Z,5.00
2017-07-26T14:35:04.138Z,6.23
2017-07-26T14:37:31.083Z,5.97
2017-07-26T14:39:58.003Z,5.30
2017-07-26T14:42:25.707Z,4.20
2017-07-26T14:44:52.659Z,5.10
2017-07-26T14:47:20.610Z,4.70
2017-07-26T14:49:47.543Z,4.87
2017-07-26T14:52:14.474Z,4.20
2017-07-26T14:54:41.407Z,4.77
2017-07-26T14:57:09.105Z,4.07
2017-07-26T14:59:36.022Z,3.97
2017-07-26T15:02:03.711Z,5.07
2017-07-26T15:04:30.637Z,5.13
2017-07-26T15:06:57.569Z,4.00
2017-07-26T15:09:24.487Z,4.50
2017-07-26T15:11:51.435Z,4.47
2017-07-26T15:14:19.334Z,5.67
2017-07-26T15:16:46.275Z,4.40
2017-07-26T15:19:13.185Z,4.70
2017-07-26T15:21:40.114Z,3.50
2017-07-26T15:24:08.025Z,3.93
2017-07-26T15:26:34.994Z,4.90
2017-07-26T15:29:01.918Z,5.27
2017-07-26T15:31:28.848Z,3.90
2017-07-26T15:33:55.781Z,5.50
2017-07-26T15:36:22.714Z,4.07
2017-07-26T15:38:49.665Z,3.30
2017-07-26T15:41:16.582Z,5.13
2017-07-26T15:43:43.510Z,4.20
2017-07-26T15:46:10.426Z,5.63
2017-07-26T15:48:37.354Z,3.73
2017-07-26T15:51:04.266Z,3.73
2017-07-26T15:53:31.197Z,3.20
2017-07-26T15:55:58.123Z,3.80
2017-07-26T15:58:25.180Z,3.70
2017-07-26T16:00:53.125Z,3.03
2017-07-26T16:03:20.066Z,2.70
2017-07-26T16:05:47.902Z,4.00
2017-07-26T16:08:14.827Z,3.43
2017-07-26T16:10:41.785Z,3.20
2017-07-26T16:13:09.649Z,2.97
2017-07-26T16:15:36.607Z,9.07
2017-07-26T16:18:03.566Z,3.60
2017-07-26T16:20:31.502Z,3.70
2017-07-26T16:22:59.478Z,2.80
2017-07-26T16:25:26.437Z,3.23
2017-07-26T16:27:54.127Z,3.40
2017-07-26T16:30:22.054Z,3.50
2017-07-26T16:32:48.994Z,2.77
2017-07-26T16:35:15.946Z,3.97
2017-07-26T16:37:42.882Z,3.67
2017-07-26T16:40:09.932Z,2.70
2017-07-26T16:42:40.618Z,3.57
2017-07-26T16:45:07.610Z,3.30
2017-07-26T16:47:40.660Z,3.30
2017-07-26T16:50:07.737Z,4.30
2017-07-26T16:52:34.710Z,4.57
2017-07-26T16:55:02.425Z,3.87
2017-07-26T16:57:29.355Z,4.73
2017-07-26T16:59:57.348Z,2.57
2017-07-26T17:02:24.314Z,4.70
2017-07-26T17:07:27.427Z,3.57
2017-07-26T17:09:54.362Z,3.77
2017-07-26T17:12:21.344Z,3.80
2017-07-26T17:14:48.324Z,4.17
2017-07-26T17:17:17.219Z,3.63
2017-07-26T17:19:44.125Z,5.20
2017-07-26T17:22:11.994Z,4.10
2017-07-26T17:24:39.853Z,4.60
2017-07-26T17:27:09.910Z,5.07
2017-07-26T17:29:36.865Z,5.10
2017-07-26T17:32:03.808Z,4.50
2017-07-26T17:34:30.735Z,3.77
2017-07-26T17:36:57.689Z,4.43
2017-07-26T17:39:24.622Z,4.80
2017-07-26T17:41:51.610Z,8.63
2017-07-26T17:44:19.547Z,4.90
2017-07-26T17:46:46.463Z,5.53
2017-07-26T17:49:14.398Z,5.67
2017-07-26T17:51:42.294Z,4.20
2017-07-26T17:54:12.994Z,4.13
2017-07-26T17:56:40.844Z,4.07
2017-07-26T17:59:08.798Z,4.60
2017-07-26T18:01:36.752Z,4.87
2017-07-26T18:04:04.603Z,5.37
2017-07-26T18:06:32.470Z,4.83
2017-07-26T18:08:59.505Z,5.53
2017-07-26T18:11:26.448Z,5.00
2017-07-26T18:13:53.374Z,4.10
2017-07-26T18:16:21.078Z,4.50
2017-07-26T18:18:48.950Z,5.50
2017-07-26T18:21:21.691Z,7.50
2017-07-26T18:23:48.647Z,4.57
2017-07-26T18:26:16.524Z,4.37
2017-07-26T18:28:43.454Z,6.33
2017-07-26T18:31:10.409Z,7.03
2017-07-26T18:33:42.297Z,6.97
2017-07-26T18:36:09.225Z,5.27
2017-07-26T18:38:36.154Z,7.13
2017-07-26T18:41:05.016Z,8.10
2017-07-26T18:43:33.910Z,7.40
2017-07-26T18:46:03.555Z,6.30
2017-07-26T18:48:30.481Z,8.63
2017-07-26T18:50:57.410Z,5.33
2017-07-26T18:53:26.105Z,7.00
2017-07-26T18:55:55.857Z,7.07
2017-07-26T18:58:22.770Z,7.10
2017-07-26T19:00:51.690Z,6.43
2017-07-26T19:03:18.766Z,6.70
2017-07-26T19:05:46.475Z,5.43
2017-07-26T19:08:13.423Z,9.17
2017-07-26T19:10:40.371Z,20.63
2017-07-26T19:13:07.328Z,16.80
2017-07-26T19:15:35.168Z,11.60
2017-07-26T19:18:02.127Z,10.07
2017-07-26T19:20:30.011Z,11.00
2017-07-26T19:22:56.962Z,10.40
2017-07-26T19:25:23.897Z,8.20
2017-07-26T19:27:50.855Z,7.73
2017-07-26T19:30:17.770Z,11.37
2017-07-26T19:32:45.634Z,13.50
2017-07-26T19:35:12.595Z,12.40
2017-07-26T19:37:39.561Z,16.00
2017-07-26T19:40:06.488Z,15.57
2017-07-26T19:42:34.338Z,11.57
2017-07-26T19:45:01.263Z,14.13
2017-07-26T19:47:28.210Z,8.70
2017-07-26T19:49:55.130Z,8.90
2017-07-26T19:52:22.205Z,8.77
2017-07-26T19:54:49.129Z,8.00
2017-07-26T19:57:16.049Z,9.60
2017-07-26T19:59:43.754Z,8.83
2017-07-26T20:02:10.713Z,9.07
2017-07-26T20:04:37.646Z,8.37
2017-07-26T20:07:04.626Z,7.47
2017-07-26T20:09:31.614Z,8.67
2017-07-26T20:11:58.538Z,7.80
2017-07-26T20:14:25.483Z,11.27
2017-07-26T20:16:52.408Z,9.50
2017-07-26T20:19:19.343Z,9.03
2017-07-26T20:21:46.271Z,8.07
2017-07-26T20:24:14.164Z,8.50
2017-07-26T20:26:41.858Z,14.10
2017-07-26T20:29:09.817Z,10.07
2017-07-26T20:31:37.699Z,9.10
2017-07-26T20:34:04.642Z,14.23
2017-07-26T20:36:31.574Z,12.20
2017-07-26T20:38:58.545Z,10.03
2017-07-26T20:41:25.631Z,9.00
2017-07-26T20:43:52.556Z,11.27
2017-07-26T20:46:19.470Z,8.63
2017-07-26T20:48:46.413Z,9.90
2017-07-26T20:51:14.271Z,8.70
2017-07-26T20:53:43.152Z,11.10
2017-07-26T20:56:12.014Z,9.33
2017-07-26T20:58:38.963Z,11.80
2017-07-26T21:01:05.906Z,8.67
2017-07-26T21:03:32.826Z,7.90
2017-07-26T21:05:59.782Z,9.30
2017-07-26T21:08:26.707Z,8.70
2017-07-26T21:10:53.660Z,9.10
2017-07-26T21:13:20.586Z,8.70
2017-07-26T21:15:47.527Z,8.70
2017-07-26T21:18:14.462Z,7.13
2017-07-26T21:20:43.782Z,8.70
2017-07-26T21:23:10.706Z,11.50
2017-07-26T21:25:38.399Z,8.87
2017-07-26T21:28:05.349Z,9.17
2017-07-26T21:30:33.182Z,11.33
2017-07-26T21:33:00.146Z,9.20
2017-07-26T21:35:27.063Z,13.63
2017-07-26T21:37:54.775Z,9.93
2017-07-26T21:40:21.707Z,8.73
2017-07-26T21:42:48.678Z,13.67
2017-07-26T21:45:16.597Z,10.87
2017-07-26T21:47:44.472Z,11.30
2017-07-26T21:50:11.414Z,9.27
2017-07-26T21:52:38.369Z,11.00
2017-07-26T21:55:05.287Z,9.53
2017-07-26T21:57:32.241Z,10.80
2017-07-26T21:59:59.168Z,9.90
2017-07-26T22:02:26.854Z,10.80
2017-07-26T22:04:53.797Z,9.27
2017-07-26T22:07:20.709Z,8.93
2017-07-26T22:09:48.410Z,9.33
2017-07-26T22:12:15.330Z,11.80
2017-07-26T22:14:42.262Z,12.30
2017-07-26T22:17:09.189Z,13.27
2017-07-26T22:19:36.138Z,10.37
2017-07-26T22:22:03.062Z,13.07
2017-07-26T22:24:30.937Z,9.93
2017-07-26T22:26:57.869Z,10.40
2017-07-26T22:29:25.810Z,8.40
2017-07-26T22:31:52.742Z,12.30
2017-07-26T22:34:19.672Z,11.63
2017-07-26T22:36:47.688Z,11.90
2017-07-26T22:39:14.618Z,12.83
2017-07-26T22:41:41.541Z,11.87
2017-07-26T22:44:08.485Z,14.43
2017-07-26T22:46:35.418Z,9.80
2017-07-26T22:49:03.099Z,9.80
2017-07-26T22:51:30.974Z,18.23
2017-07-26T22:53:58.851Z,12.73
2017-07-26T22:56:25.790Z,12.03
2017-07-26T22:58:52.728Z,19.43
2017-07-26T23:01:19.714Z,13.30
2017-07-26T23:03:46.633Z,13.20
2017-07-26T23:06:13.560Z,11.60
2017-07-26T23:08:41.425Z,11.30
2017-07-26T23:11:08.338Z,15.40
2017-07-26T23:13:36.042Z,17.33
2017-07-26T23:16:02.964Z,14.00
2017-07-26T23:18:29.926Z,10.47
2017-07-26T23:20:56.872Z,10.83
2017-07-26T23:23:24.744Z,9.20
2017-07-26T23:25:51.662Z,11.50
2017-07-26T23:28:18.581Z,8.77
2017-07-26T23:30:46.287Z,8.90
2017-07-26T23:33:13.210Z,12.37
2017-07-26T23:35:41.122Z,19.20
2017-07-26T23:38:08.045Z,11.07
2017-07-26T23:40:34.982Z,11.67
2017-07-26T23:43:01.903Z,11.90
2017-07-26T23:45:29.615Z,11.23
2017-07-26T23:47:56.543Z,13.80
2017-07-26T23:50:23.498Z,10.10
2017-07-26T23:52:50.445Z,12.60
2017-07-26T23:55:17.378Z,14.07
2017-07-26T23:57:44.302Z,12.97
